Silver Gate, MT

8:16 AM MDT on July 23, 2016 (GMT -0600)
Yellowstone | | Change Station

Elev 7835 ft 44.54 °N, 110.42 °W | Updated 20 minutes ago

Clear
Clear
49 °F
Feels Like 49 °F
N
0
Wind Variable Wind from North
Gusts 17 mph

Today
High -- | Low -- °F
--% Chance of Precip.
Yesterday
High -- | Low -- °F
Precip. -- in
Pressure 30.07 in
Visibility -9999.0 miles
Clouds
Dew Point 35 °F
Humidity 59%
Rainfall 0.00 in
Snow Depth Not available.
5:56 AM 8:57 PM
Waning Gibbous, 85% visible
METAR KP60 231356Z AUTO 00000KT 09/02 A3033 RMK AO1 SLP183 T00940017 $
Pressure 30.07 in
Visibility -9999.0 miles
Clouds
Dew Point 35 °F
Humidity 59%
Rainfall 0.00 in
Snow Depth Not available.
5:56 AM 8:57 PM
Waning Gibbous, 85% visible
METAR KP60 231356Z AUTO 00000KT 09/02 A3033 RMK AO1 SLP183 T00940017 $

10-Day Weather Forecast

Almanac

Astronomy

Jul. 23, 2016 Rise Set
Actual Time
Civil Twilight
Nautical Twilight
Astronomical Twilight
Moon
Length of Visible Light
Length of Day
Tomorrow will be .
, % of the Moon is Illuminated

Today's Extremes

State Highs State Lows

Community

WunderPhotos

Upload Photos

1,926,821 photos uploaded!

WunderBlog® & News

Nearby

Air Quality

  Air Quality AQ Index Pollutant
Not available.

Snow Depth

Station Depth Elevation

Earthquake Activity

City Distance Mag. Time & Date
Minimum magnitude displayed is 2.5.

Coastal Water Temperatures

Place Temperature

Stations

Nearby Weather Stations

Station Location Temp. Windchill Dew Point Humidity Wind Precip. Elev Updated Type
                   

Watches & Warnings

There are currently no watches in effect.